Wednesday, June 20, 2018, 5:17 PM EDT
Back to Local

KMMK, Meriden Markham Municipal Airport

Location: Meriden, CT, United States Lat: 41.517
Local Time: 5:17 PM EDT (21:17 GMT) Lon: -72.833
Time Zone: US/Eastern Elev: 101 ft

Show me the last for .
Show Decoded

2018-06-20 16:53 METAR KMMK 202053Z AUTO 21005KT 10SM CLR 26/12 A2980 RMK AO2 SLP090 T02610122
                 56011 =
2018-06-20 15:53 METAR KMMK 201953Z AUTO 20008KT 10SM CLR 27/12 A2981 RMK AO2 SLP095 T02670122 =
2018-06-20 14:53 METAR KMMK 201853Z AUTO 19009KT 10SM CLR 27/12 A2982 RMK AO2 SLP096 T02720122 =
2018-06-20 13:53 METAR KMMK 201753Z AUTO VRB03KT 10SM CLR 27/12 A2983 RMK AO2 SLP101 T02720117
                 10272 20189 58019 =
2018-06-20 12:53 METAR KMMK 201653Z AUTO 00000KT 10SM CLR 26/12 A2986 RMK AO2 SLP110 T02560117 =
2018-06-20 11:53 METAR KMMK 201553Z AUTO VRB05KT 10SM CLR 25/12 A2988 RMK AO2 SLP116 T02500122 =
2018-06-20 10:53 METAR KMMK 201453Z AUTO 00000KT 10SM CLR 22/12 A2989 RMK AO2 SLP120 T02220117
                 58012 =
2018-06-20 09:53 METAR KMMK 201353Z AUTO VRB03KT 10SM CLR 21/12 A2991 RMK AO2 SLP128 T02110122 =
2018-06-20 08:53 METAR KMMK 201253Z AUTO 34003KT 10SM CLR 20/11 A2992 RMK AO2 SLP131 T02000111 =
2018-06-20 07:53 METAR KMMK 201153Z AUTO 01004KT 10SM CLR 19/12 A2993 RMK AO2 SLP133 T01890117
                 10189 20128 51009 =
2018-06-20 06:53 METAR KMMK 201053Z AUTO 33003KT 10SM CLR 18/12 A2992 RMK AO2 SLP131 T01780117 =
2018-06-20 05:53 METAR KMMK 200953Z AUTO 00000KT 10SM CLR 13/11 A2991 RMK AO2 SLP127 T01330111 =
2018-06-20 04:53 METAR KMMK 200853Z AUTO 00000KT 10SM CLR 13/12 A2990 RMK AO2 SLP124 T01330117
                 53005 =
2018-06-20 03:53 METAR KMMK 200753Z AUTO 00000KT 10SM CLR 15/11 A2989 RMK AO2 SLP121 T01500106 =
2018-06-20 02:53 METAR KMMK 200653Z AUTO 00000KT 10SM CLR 14/11 A2989 RMK AO2 SLP119 T01440111 =
2018-06-20 01:53 METAR KMMK 200553Z AUTO 00000KT 10SM CLR 15/12 A2989 RMK AO2 SLP118 T01500117
                 10261 20144 51003 =
2018-06-20 00:53 METAR KMMK 200453Z AUTO 00000KT 10SM CLR 16/12 A2988 RMK AO2 SLP118 T01610117
                 403060156 =
2018-06-19 23:53 METAR KMMK 200353Z AUTO 00000KT 10SM CLR 16/11 A2988 RMK AO2 SLP118 T01610106 =
2018-06-19 22:53 METAR KMMK 200253Z AUTO 00000KT 10SM CLR 18/11 A2988 RMK AO2 SLP116 T01830106
                 51020 =
2018-06-19 21:53 METAR KMMK 200153Z AUTO 02003KT 10SM CLR 22/09 A2987 RMK AO2 SLP113 T02220089 =
2018-06-19 20:53 METAR KMMK 200053Z AUTO 01003KT 10SM CLR 24/11 A2984 RMK AO2 SLP103 T02390106 =
2018-06-19 19:53 METAR KMMK 192353Z AUTO 02005KT 10SM CLR 27/10 A2982 RMK AO2 SLP095 T02670100
                 10306 20267 53012 =
2018-06-19 18:53 METAR KMMK 192253Z AUTO 34009KT 10SM CLR 28/09 A2980 RMK AO2 SLP089 T02830094 =
2018-06-19 17:53 METAR KMMK 192153Z AUTO 34009G14KT 10SM CLR 29/11 A2979 RMK AO2 SLP085 T02890106
                 =

Support USWX by starting your Amazon purchase here.